createdAt,value
2023-03-02T00:00:47.998Z,33.80
2023-03-02T00:02:17.525Z,31.52
2023-03-02T00:03:21.870Z,32.40
2023-03-02T00:04:38.424Z,35.08
2023-03-02T00:05:42.095Z,33.00
2023-03-02T00:06:44.422Z,30.63
2023-03-02T00:07:46.797Z,32.55
2023-03-02T00:08:48.678Z,30.08
2023-03-02T00:09:54.029Z,30.33
2023-03-02T00:10:57.782Z,29.92
2023-03-02T00:12:00.250Z,28.63
2023-03-02T00:13:03.457Z,29.00
2023-03-02T00:14:08.510Z,32.85
2023-03-02T00:15:10.816Z,33.75
2023-03-02T00:16:12.802Z,30.70
2023-03-02T00:17:15.157Z,28.35
2023-03-02T00:18:17.158Z,28.38
2023-03-02T00:19:20.768Z,29.92
2023-03-02T00:20:22.823Z,30.23
2023-03-02T00:21:25.075Z,31.15
2023-03-02T00:22:27.824Z,29.88
2023-03-02T00:23:32.053Z,30.77
2023-03-02T00:24:35.485Z,28.67
2023-03-02T00:25:38.505Z,28.90
2023-03-02T00:26:41.604Z,28.67
2023-03-02T00:27:43.820Z,27.92
2023-03-02T00:28:46.506Z,28.35
2023-03-02T00:29:48.273Z,29.38
2023-03-02T00:30:51.418Z,30.17
2023-03-02T00:31:53.272Z,30.42
2023-03-02T00:32:55.137Z,29.73
2023-03-02T00:33:56.712Z,29.67
2023-03-02T00:35:02.873Z,30.05
2023-03-02T00:36:06.455Z,28.25
2023-03-02T00:37:08.513Z,29.77
2023-03-02T00:38:10.824Z,31.30
2023-03-02T00:39:12.806Z,31.50
2023-03-02T00:40:18.309Z,30.52
2023-03-02T00:41:23.481Z,28.67
2023-03-02T00:42:26.744Z,28.88
2023-03-02T00:43:30.938Z,29.45
2023-03-02T00:44:34.489Z,30.65
2023-03-02T00:45:36.625Z,28.60
2023-03-02T00:46:41.009Z,30.65
2023-03-02T00:47:43.195Z,27.80
2023-03-02T00:48:46.797Z,29.48
2023-03-02T00:49:52.697Z,28.05
2023-03-02T00:50:54.656Z,28.83
2023-03-02T00:51:56.237Z,30.45
2023-03-02T00:52:58.090Z,28.77
2023-03-02T00:54:03.049Z,29.35
2023-03-02T00:55:06.602Z,29.50
2023-03-02T00:56:09.747Z,29.25
2023-03-02T00:57:14.183Z,28.25
2023-03-02T00:58:19.759Z,33.55
2023-03-02T00:59:28.512Z,32.25
2023-03-02T01:00:31.832Z,32.42
2023-03-02T01:01:34.672Z,33.28
2023-03-02T01:02:40.514Z,30.13
2023-03-02T01:03:42.219Z,30.17
2023-03-02T01:04:47.408Z,31.17
2023-03-02T01:05:50.625Z,33.17
2023-03-02T01:06:52.837Z,31.33
2023-03-02T01:07:55.008Z,30.63
2023-03-02T01:08:56.810Z,31.67
2023-03-02T01:09:58.815Z,32.45
2023-03-02T01:11:02.616Z,30.40
2023-03-02T01:12:05.844Z,30.55
2023-03-02T01:13:08.156Z,30.58
2023-03-02T01:14:09.845Z,33.15
2023-03-02T01:15:12.314Z,33.65
2023-03-02T01:16:14.907Z,33.60
2023-03-02T01:17:17.570Z,33.88
2023-03-02T01:18:19.143Z,31.67
2023-03-02T01:19:24.164Z,32.63
2023-03-02T01:20:26.715Z,31.73
2023-03-02T01:21:28.553Z,33.85
2023-03-02T01:22:34.022Z,34.22
2023-03-02T01:23:36.286Z,34.08
2023-03-02T01:24:38.113Z,34.50
2023-03-02T01:25:40.028Z,34.47
2023-03-02T01:26:43.545Z,31.48
2023-03-02T01:27:56.182Z,33.03
2023-03-02T01:28:59.379Z,34.88
2023-03-02T01:30:02.625Z,33.60
2023-03-02T01:31:05.026Z,34.17
2023-03-02T01:32:08.318Z,35.00
2023-03-02T01:33:10.683Z,35.35
2023-03-02T01:34:12.776Z,34.72
2023-03-02T01:35:15.325Z,33.75
2023-03-02T01:36:18.621Z,33.17
2023-03-02T01:37:21.287Z,36.15
2023-03-02T01:38:23.979Z,34.78
2023-03-02T01:39:26.076Z,34.38
2023-03-02T01:40:28.170Z,33.90
2023-03-02T01:41:30.022Z,32.00
2023-03-02T01:42:41.881Z,35.35
2023-03-02T01:43:44.515Z,35.20
2023-03-02T01:44:49.559Z,34.15
2023-03-02T01:45:53.766Z,35.47
2023-03-02T01:46:57.526Z,35.03
2023-03-02T01:47:59.321Z,34.80
2023-03-02T01:49:11.281Z,35.53
2023-03-02T01:50:26.646Z,37.65
2023-03-02T01:51:36.210Z,37.55
2023-03-02T01:52:39.254Z,35.90
2023-03-02T01:53:48.520Z,37.13
2023-03-02T01:54:54.054Z,37.15
2023-03-02T01:55:58.427Z,36.67
2023-03-02T01:57:04.227Z,38.13
2023-03-02T01:58:07.864Z,37.40
2023-03-02T01:59:15.700Z,37.78
2023-03-02T02:00:27.334Z,37.55
2023-03-02T02:01:36.579Z,36.08
2023-03-02T02:02:42.294Z,36.78
2023-03-02T02:03:46.488Z,35.50
2023-03-02T02:04:50.822Z,37.80
2023-03-02T02:06:35.360Z,35.15
2023-03-02T02:07:37.819Z,35.65
2023-03-02T02:08:40.020Z,37.45
2023-03-02T02:09:46.329Z,38.90
2023-03-02T02:10:48.243Z,35.33
2023-03-02T02:11:50.084Z,38.55
2023-03-02T02:12:52.510Z,36.92
2023-03-02T02:13:58.940Z,38.30
2023-03-02T02:15:02.973Z,38.42
2023-03-02T02:16:07.187Z,34.45
2023-03-02T02:17:11.129Z,37.55
2023-03-02T02:18:14.033Z,35.72
2023-03-02T02:19:36.275Z,39.95
2023-03-02T02:20:46.130Z,39.95
2023-03-02T02:21:50.885Z,38.85
2023-03-02T02:23:33.649Z,38.97
2023-03-02T02:24:53.545Z,39.30
2023-03-02T02:26:18.760Z,38.60
2023-03-02T02:27:21.429Z,40.75
2023-03-02T02:28:33.328Z,38.55
2023-03-02T02:29:46.704Z,39.70
2023-03-02T02:30:56.197Z,36.97
2023-03-02T02:32:18.173Z,39.05
2023-03-02T02:33:25.033Z,39.20
2023-03-02T02:34:55.445Z,38.72
2023-03-02T02:36:04.031Z,35.42
2023-03-02T02:37:17.766Z,36.40
2023-03-02T02:38:22.374Z,37.00
2023-03-02T02:39:29.561Z,36.67
2023-03-02T02:40:48.936Z,36.40
2023-03-02T02:41:55.106Z,36.03
2023-03-02T02:42:58.165Z,39.00
2023-03-02T02:44:00.319Z,37.67
2023-03-02T02:45:07.645Z,40.22
2023-03-02T02:46:13.206Z,39.05
2023-03-02T02:47:18.408Z,39.00
2023-03-02T02:48:27.561Z,37.85
2023-03-02T02:49:38.204Z,37.83
2023-03-02T02:50:42.639Z,39.05
2023-03-02T02:51:45.094Z,41.88
2023-03-02T02:52:56.129Z,38.83
2023-03-02T02:54:05.029Z,38.95
2023-03-02T02:55:07.134Z,39.38
2023-03-02T02:56:11.449Z,37.80
2023-03-02T02:57:18.193Z,38.30
2023-03-02T02:58:32.995Z,37.97
2023-03-02T02:59:46.651Z,38.55
2023-03-02T03:00:49.220Z,38.97
2023-03-02T03:01:53.675Z,38.25
2023-03-02T03:03:03.545Z,39.63
2023-03-02T03:04:07.414Z,40.58
2023-03-02T03:05:17.114Z,38.08
2023-03-02T03:06:25.045Z,40.47
2023-03-02T03:07:28.127Z,39.03
2023-03-02T03:09:00.315Z,40.25
2023-03-02T03:10:35.487Z,39.72
2023-03-02T03:11:41.602Z,40.50
2023-03-02T03:12:44.061Z,40.67
2023-03-02T03:13:47.334Z,37.78
2023-03-02T03:14:51.509Z,40.03
2023-03-02T03:15:53.838Z,38.53
2023-03-02T03:16:56.684Z,39.65
2023-03-02T03:18:00.051Z,39.60
2023-03-02T03:19:38.212Z,40.97
2023-03-02T03:20:41.306Z,41.08
2023-03-02T03:21:45.389Z,40.30
2023-03-02T03:22:47.598Z,37.10
2023-03-02T03:23:52.759Z,37.50
2023-03-02T03:24:55.485Z,40.80
2023-03-02T03:25:58.325Z,39.42
2023-03-02T03:27:05.624Z,40.95
2023-03-02T03:28:07.495Z,38.90
2023-03-02T03:29:10.006Z,39.83
2023-03-02T03:30:16.889Z,41.50
2023-03-02T03:31:19.270Z,37.85
2023-03-02T03:32:22.396Z,37.53
2023-03-02T03:33:24.488Z,37.55
2023-03-02T03:34:28.285Z,38.25
2023-03-02T03:35:30.615Z,38.08
2023-03-02T03:36:33.636Z,41.08
2023-03-02T03:37:37.112Z,37.63
2023-03-02T03:38:39.102Z,38.40
2023-03-02T03:39:43.445Z,38.00
2023-03-02T03:40:46.302Z,38.80
2023-03-02T03:41:50.685Z,39.90
2023-03-02T03:42:52.699Z,38.72
2023-03-02T03:43:55.463Z,38.42
2023-03-02T03:44:59.270Z,39.65
2023-03-02T03:46:01.103Z,37.80
2023-03-02T03:47:04.028Z,39.10
2023-03-02T03:48:06.151Z,36.83
2023-03-02T03:49:08.438Z,39.50
2023-03-02T03:50:12.381Z,39.60
2023-03-02T03:51:16.023Z,39.53
2023-03-02T03:52:17.924Z,40.10
2023-03-02T03:53:20.950Z,37.97
2023-03-02T03:54:23.079Z,38.28
2023-03-02T03:55:28.991Z,41.00
2023-03-02T03:56:36.753Z,41.08
2023-03-02T03:57:40.276Z,39.95
2023-03-02T03:58:42.268Z,38.15
2023-03-02T03:59:44.702Z,39.80
2023-03-02T04:00:47.944Z,37.30
2023-03-02T04:01:56.592Z,37.95
2023-03-02T04:02:58.521Z,38.20
2023-03-02T04:04:01.972Z,38.13
2023-03-02T04:05:08.700Z,41.00
2023-03-02T04:06:19.751Z,38.67
2023-03-02T04:07:22.226Z,38.85
2023-03-02T04:08:25.107Z,37.70
2023-03-02T04:09:29.480Z,38.72
2023-03-02T04:10:33.915Z,36.97
2023-03-02T04:11:38.585Z,37.13
2023-03-02T04:12:42.434Z,38.13
2023-03-02T04:13:44.556Z,38.85
2023-03-02T04:14:46.656Z,38.38
2023-03-02T04:15:48.662Z,36.13
2023-03-02T04:16:51.840Z,38.03
2023-03-02T04:17:54.330Z,38.55
2023-03-02T04:18:56.358Z,40.15
2023-03-02T04:19:59.012Z,38.25
2023-03-02T04:21:00.704Z,39.45
2023-03-02T04:22:04.282Z,39.85
2023-03-02T04:23:07.738Z,38.95
2023-03-02T04:24:11.476Z,38.90
2023-03-02T04:25:14.610Z,39.47
2023-03-02T04:26:19.132Z,40.45
2023-03-02T04:27:22.646Z,37.53
2023-03-02T04:28:24.636Z,38.63
2023-03-02T04:29:26.816Z,36.88
2023-03-02T04:30:30.082Z,40.85
2023-03-02T04:31:34.066Z,38.40
2023-03-02T04:32:36.039Z,39.03
2023-03-02T04:33:39.568Z,40.42
2023-03-02T04:34:45.105Z,39.83
2023-03-02T04:35:46.945Z,38.90
2023-03-02T04:36:50.220Z,39.03
2023-03-02T04:37:52.111Z,40.30
2023-03-02T04:38:54.228Z,38.67
2023-03-02T04:39:58.350Z,39.92
2023-03-02T04:41:03.477Z,38.75
2023-03-02T04:42:06.369Z,38.88
2023-03-02T04:43:08.434Z,38.70
2023-03-02T04:44:10.398Z,38.60
2023-03-02T04:45:13.292Z,40.05
2023-03-02T04:46:18.486Z,38.92
2023-03-02T04:47:21.085Z,41.28
2023-03-02T04:48:23.656Z,41.55
2023-03-02T04:49:25.540Z,40.22
2023-03-02T04:50:27.984Z,40.45
2023-03-02T04:51:34.231Z,41.78
2023-03-02T04:52:36.740Z,40.67
2023-03-02T04:53:39.259Z,36.80
2023-03-02T04:54:41.745Z,39.38
2023-03-02T04:55:47.326Z,38.67
2023-03-02T04:56:49.731Z,39.45
2023-03-02T04:57:52.238Z,39.00
2023-03-02T04:58:56.000Z,39.88
2023-03-02T04:59:58.045Z,42.03
2023-03-02T05:01:02.336Z,39.38
2023-03-02T05:02:04.834Z,41.05
2023-03-02T05:03:06.828Z,39.17
2023-03-02T05:04:09.636Z,39.17
2023-03-02T05:05:25.116Z,40.75
2023-03-02T05:06:31.046Z,40.28
2023-03-02T05:07:33.968Z,39.63
2023-03-02T05:08:36.655Z,39.03
2023-03-02T05:09:38.652Z,37.85
2023-03-02T05:10:40.829Z,40.50
2023-03-02T05:11:43.701Z,40.28
2023-03-02T05:12:55.775Z,40.75
2023-03-02T05:14:00.661Z,39.15
2023-03-02T05:15:03.060Z,39.55
2023-03-02T05:16:07.020Z,39.10
2023-03-02T05:17:09.740Z,41.63
2023-03-02T05:18:12.544Z,42.30
2023-03-02T05:19:16.741Z,40.33
2023-03-02T05:20:21.586Z,39.88
2023-03-02T05:21:24.843Z,38.65
2023-03-02T05:22:27.586Z,38.28
2023-03-02T05:23:32.778Z,36.90
2023-03-02T05:24:36.447Z,38.63
2023-03-02T05:25:39.585Z,37.90
2023-03-02T05:26:42.352Z,36.92
2023-03-02T05:27:44.346Z,37.85
2023-03-02T05:28:46.680Z,36.63
2023-03-02T05:29:49.779Z,38.85
2023-03-02T05:30:53.179Z,41.88
2023-03-02T05:31:55.551Z,40.10
2023-03-02T05:32:58.951Z,42.25
2023-03-02T05:34:02.376Z,39.40
2023-03-02T05:35:06.732Z,38.83
2023-03-02T05:36:09.014Z,36.10
2023-03-02T05:37:11.433Z,37.60
2023-03-02T05:38:13.789Z,38.25
2023-03-02T05:39:16.700Z,40.50
2023-03-02T05:40:20.779Z,37.85
2023-03-02T05:41:23.831Z,39.17
2023-03-02T05:42:25.975Z,38.92
2023-03-02T05:43:28.931Z,40.92
2023-03-02T05:44:31.067Z,38.17
2023-03-02T05:45:38.611Z,40.80
2023-03-02T05:46:41.102Z,38.28
2023-03-02T05:47:44.143Z,38.35
2023-03-02T05:48:49.160Z,39.85
2023-03-02T05:49:51.372Z,39.50
2023-03-02T05:50:53.496Z,38.08
2023-03-02T05:51:55.290Z,39.33
2023-03-02T05:52:58.354Z,39.25
2023-03-02T05:54:00.652Z,42.13
2023-03-02T05:55:03.129Z,39.42
2023-03-02T05:56:07.781Z,40.80
2023-03-02T05:57:09.648Z,40.78
2023-03-02T05:58:16.878Z,41.35
2023-03-02T05:59:19.092Z,40.03
2023-03-02T06:00:21.920Z,41.22
2023-03-02T06:01:24.074Z,39.17
2023-03-02T06:02:27.469Z,41.05
2023-03-02T06:03:30.053Z,40.70
2023-03-02T06:04:31.985Z,38.67
2023-03-02T06:05:36.860Z,41.30
2023-03-02T06:06:39.021Z,41.03
2023-03-02T06:07:41.322Z,39.95
2023-03-02T06:08:45.161Z,40.60
2023-03-02T06:09:47.228Z,41.97
2023-03-02T06:10:51.263Z,40.33
2023-03-02T06:11:53.228Z,42.60
2023-03-02T06:12:55.806Z,41.50
2023-03-02T06:13:57.949Z,45.63
2023-03-02T06:15:00.156Z,44.42
2023-03-02T06:16:02.479Z,42.25
2023-03-02T06:17:05.267Z,43.70
2023-03-02T06:18:07.469Z,40.88
2023-03-02T06:19:09.468Z,43.17
2023-03-02T06:20:12.206Z,41.35
2023-03-02T06:21:13.955Z,41.15
2023-03-02T06:22:21.216Z,42.13
2023-03-02T06:23:23.791Z,40.83
2023-03-02T06:24:25.926Z,39.17
2023-03-02T06:25:28.137Z,41.95
2023-03-02T06:26:30.652Z,41.40
2023-03-02T06:27:32.906Z,40.22
2023-03-02T06:28:49.683Z,38.90
2023-03-02T06:29:53.796Z,40.40
2023-03-02T06:30:56.387Z,40.60
2023-03-02T06:32:04.940Z,43.13
2023-03-02T06:33:09.398Z,43.15
2023-03-02T06:34:11.167Z,42.90
2023-03-02T06:35:16.774Z,42.15
2023-03-02T06:36:19.670Z,44.15
2023-03-02T06:37:22.406Z,40.63
2023-03-02T06:38:24.273Z,43.83
2023-03-02T06:39:26.068Z,45.38
2023-03-02T06:40:27.829Z,45.00
2023-03-02T06:41:30.869Z,44.50
2023-03-02T06:42:34.505Z,41.35
2023-03-02T06:43:36.588Z,40.60
2023-03-02T06:44:38.553Z,40.10
2023-03-02T06:45:41.396Z,41.50
2023-03-02T06:46:45.020Z,41.10
2023-03-02T06:47:47.332Z,42.05
2023-03-02T06:48:49.182Z,39.85
2023-03-02T06:49:51.285Z,40.42
2023-03-02T06:50:52.935Z,40.47
2023-03-02T06:51:54.611Z,41.20
2023-03-02T06:52:57.148Z,36.92
2023-03-02T06:54:01.680Z,41.03
2023-03-02T06:55:04.464Z,39.35
2023-03-02T06:56:07.646Z,37.60
2023-03-02T06:57:10.582Z,39.60
2023-03-02T06:58:13.283Z,38.65
2023-03-02T06:59:16.227Z,39.55
2023-03-02T07:00:26.426Z,39.47
2023-03-02T07:01:33.058Z,39.85
2023-03-02T07:02:35.557Z,38.40
2023-03-02T07:03:37.646Z,38.33
2023-03-02T07:04:39.894Z,37.67
2023-03-02T07:05:41.698Z,40.10
2023-03-02T07:06:43.579Z,37.75
2023-03-02T07:07:45.515Z,36.50
2023-03-02T07:08:48.335Z,39.58
2023-03-02T07:09:51.028Z,35.85
2023-03-02T07:10:53.298Z,37.72
2023-03-02T07:11:55.267Z,37.15
2023-03-02T07:12:58.528Z,36.60
2023-03-02T07:14:01.775Z,37.60
2023-03-02T07:15:05.706Z,38.20
2023-03-02T07:16:14.040Z,37.25
2023-03-02T07:17:17.303Z,37.40
2023-03-02T07:18:19.413Z,38.15
2023-03-02T07:19:21.216Z,36.97
2023-03-02T07:20:23.162Z,37.17
2023-03-02T07:21:25.380Z,36.75
2023-03-02T07:22:27.308Z,35.35
2023-03-02T07:23:29.228Z,35.15
2023-03-02T07:24:32.194Z,36.50
2023-03-02T07:25:34.222Z,34.97
2023-03-02T07:26:36.722Z,36.17
2023-03-02T07:27:40.700Z,38.00
2023-03-02T07:28:45.952Z,37.53
2023-03-02T07:29:48.195Z,36.35
2023-03-02T07:30:51.610Z,36.05
2023-03-02T07:31:57.376Z,37.03
2023-03-02T07:33:01.217Z,36.42
2023-03-02T07:34:03.091Z,36.92
2023-03-02T07:35:05.621Z,35.65
2023-03-02T07:36:10.145Z,35.53
2023-03-02T07:37:11.826Z,39.53
2023-03-02T07:38:13.963Z,37.97
2023-03-02T07:39:16.782Z,37.17
2023-03-02T07:40:20.362Z,35.50
2023-03-02T07:41:23.366Z,35.70
2023-03-02T07:42:25.980Z,33.35
2023-03-02T07:43:31.191Z,34.08
2023-03-02T07:44:32.946Z,33.30
2023-03-02T07:45:34.919Z,34.08
2023-03-02T07:46:40.171Z,33.17
2023-03-02T07:47:43.960Z,31.85
2023-03-02T07:48:46.473Z,33.92
2023-03-02T07:49:48.194Z,33.50
2023-03-02T07:50:50.267Z,29.30
2023-03-02T07:51:54.323Z,29.17
2023-03-02T07:52:59.119Z,30.50
2023-03-02T07:54:03.527Z,31.20
2023-03-02T07:55:08.071Z,31.73
2023-03-02T07:56:11.376Z,31.30
2023-03-02T07:57:18.231Z,29.20
2023-03-02T07:58:21.664Z,30.70
2023-03-02T07:59:25.795Z,30.65
2023-03-02T08:00:28.448Z,30.98
2023-03-02T08:01:31.257Z,30.13
2023-03-02T08:02:34.157Z,30.25
2023-03-02T08:03:36.937Z,30.95
2023-03-02T08:04:39.619Z,29.95
2023-03-02T08:05:41.544Z,31.98
2023-03-02T08:06:43.729Z,32.25
2023-03-02T08:07:47.472Z,30.73
2023-03-02T08:08:50.306Z,30.85
2023-03-02T08:09:52.414Z,31.75
2023-03-02T08:10:54.521Z,31.75
2023-03-02T08:11:57.504Z,33.08
2023-03-02T08:13:00.823Z,31.67
2023-03-02T08:14:04.263Z,31.73
2023-03-02T08:15:06.918Z,31.67
2023-03-02T08:16:12.835Z,32.63
2023-03-02T08:17:15.268Z,33.15
2023-03-02T08:18:20.149Z,33.15
2023-03-02T08:19:22.871Z,32.08
2023-03-02T08:20:25.905Z,31.05
2023-03-02T08:21:29.433Z,31.85
2023-03-02T08:22:32.087Z,32.67
2023-03-02T08:23:36.574Z,34.75
2023-03-02T08:24:42.556Z,33.88
2023-03-02T08:25:50.937Z,32.05
2023-03-02T08:26:54.100Z,35.50
2023-03-02T08:27:57.895Z,34.22
2023-03-02T08:29:01.460Z,35.30
2023-03-02T08:30:04.344Z,34.28
2023-03-02T08:31:08.449Z,33.45
2023-03-02T08:32:10.732Z,33.70
2023-03-02T08:33:14.796Z,36.10
2023-03-02T08:34:16.750Z,35.72
2023-03-02T08:35:19.619Z,35.90
2023-03-02T08:36:22.003Z,33.58
2023-03-02T08:37:23.838Z,34.67
2023-03-02T08:38:26.627Z,33.88
2023-03-02T08:39:32.745Z,33.80
2023-03-02T08:40:36.369Z,33.45
2023-03-02T08:41:38.399Z,34.97
2023-03-02T08:42:41.289Z,33.65
2023-03-02T08:43:46.318Z,32.95
2023-03-02T08:44:50.002Z,32.40
2023-03-02T08:46:14.001Z,34.38
2023-03-02T08:47:15.741Z,31.73
2023-03-02T08:48:18.319Z,33.10
2023-03-02T08:49:20.842Z,32.10
2023-03-02T08:50:23.402Z,33.45
2023-03-02T08:51:26.644Z,34.67
2023-03-02T08:52:28.756Z,35.75
2023-03-02T08:53:33.180Z,32.33
2023-03-02T08:54:41.344Z,35.92
2023-03-02T08:55:44.343Z,34.58
2023-03-02T08:56:48.988Z,33.20
2023-03-02T08:57:52.911Z,33.00
2023-03-02T08:59:01.660Z,36.08
2023-03-02T09:00:06.735Z,34.97
2023-03-02T09:01:19.010Z,34.72
2023-03-02T09:02:22.932Z,31.30
2023-03-02T09:03:24.938Z,32.83
2023-03-02T09:04:26.956Z,33.65
2023-03-02T09:05:28.894Z,33.30
2023-03-02T09:06:32.585Z,32.83
2023-03-02T09:07:35.160Z,35.92
2023-03-02T09:08:37.836Z,34.80
2023-03-02T09:09:41.314Z,32.88
2023-03-02T09:10:44.395Z,32.97
2023-03-02T09:11:48.020Z,34.80
2023-03-02T09:12:50.534Z,31.77
2023-03-02T09:13:53.369Z,33.53
2023-03-02T09:14:55.765Z,34.35
2023-03-02T09:16:00.709Z,34.05
2023-03-02T09:17:02.947Z,32.92
2023-03-02T09:18:04.792Z,34.63
2023-03-02T09:19:08.221Z,33.58
2023-03-02T09:20:11.972Z,33.13
2023-03-02T09:21:14.175Z,34.63
2023-03-02T09:22:16.238Z,33.47
2023-03-02T09:23:27.249Z,32.55
2023-03-02T09:24:29.456Z,33.70
2023-03-02T09:25:33.204Z,33.30
2023-03-02T09:26:37.862Z,33.70
2023-03-02T09:27:41.504Z,35.05
2023-03-02T09:28:43.516Z,33.80
2023-03-02T09:29:46.435Z,32.55
2023-03-02T09:30:54.356Z,32.38
2023-03-02T09:31:56.797Z,31.27
2023-03-02T09:32:59.153Z,31.92
2023-03-02T09:34:02.132Z,31.40
2023-03-02T09:35:04.413Z,31.33
2023-03-02T09:36:20.666Z,31.73
2023-03-02T09:37:22.984Z,32.33
2023-03-02T09:38:30.355Z,32.88
2023-03-02T09:39:33.918Z,31.92
2023-03-02T09:40:45.247Z,31.55
2023-03-02T09:42:11.598Z,31.10
2023-03-02T09:43:38.930Z,30.45
2023-03-02T09:44:47.897Z,31.58
2023-03-02T09:45:52.749Z,32.85
2023-03-02T09:47:03.692Z,31.67
2023-03-02T09:48:11.455Z,31.17
2023-03-02T09:49:29.031Z,32.60
2023-03-02T09:51:15.748Z,32.40
2023-03-02T09:52:36.408Z,30.00
2023-03-02T09:53:59.169Z,30.15
2023-03-02T09:55:18.163Z,29.17
2023-03-02T09:56:21.761Z,31.17
2023-03-02T09:57:32.791Z,30.10
2023-03-02T09:58:49.572Z,31.40
2023-03-02T10:00:09.474Z,30.45
2023-03-02T10:01:33.237Z,28.80
2023-03-02T10:02:46.965Z,29.67
2023-03-02T10:04:08.249Z,29.80
2023-03-02T10:05:28.218Z,31.23
2023-03-02T10:06:30.578Z,29.88
2023-03-02T10:07:37.292Z,28.95
2023-03-02T10:08:43.519Z,27.92
2023-03-02T10:09:47.771Z,28.80
2023-03-02T10:11:12.706Z,30.17
2023-03-02T10:12:43.842Z,29.33
2023-03-02T10:13:54.717Z,28.08
2023-03-02T10:15:03.449Z,27.85
2023-03-02T10:16:24.186Z,30.13
2023-03-02T10:18:02.511Z,27.60
2023-03-02T10:19:14.174Z,28.93
2023-03-02T10:20:25.010Z,29.93
2023-03-02T10:21:29.987Z,29.70
2023-03-02T10:22:56.910Z,29.70
2023-03-02T10:24:36.167Z,26.70
2023-03-02T10:26:14.857Z,27.50
2023-03-02T10:27:53.749Z,28.77
2023-03-02T10:29:05.885Z,27.00
2023-03-02T10:30:31.608Z,30.05
2023-03-02T10:31:34.869Z,30.07
2023-03-02T10:32:42.488Z,28.83
2023-03-02T10:33:45.317Z,29.97
2023-03-02T10:34:49.344Z,28.27
2023-03-02T10:35:54.062Z,28.60
2023-03-02T10:36:56.445Z,29.20
2023-03-02T10:38:12.314Z,27.53
2023-03-02T10:39:16.768Z,28.07
2023-03-02T10:40:48.000Z,28.00
2023-03-02T10:42:04.957Z,27.83
2023-03-02T10:43:16.448Z,29.70
2023-03-02T10:44:24.962Z,28.57
2023-03-02T10:45:32.499Z,28.83
2023-03-02T10:46:43.062Z,28.97
2023-03-02T10:47:46.303Z,28.43
2023-03-02T10:48:53.209Z,29.93
2023-03-02T10:49:57.913Z,27.30
2023-03-02T10:51:00.726Z,29.83
2023-03-02T10:52:13.164Z,27.43
2023-03-02T10:53:17.588Z,28.13
2023-03-02T10:54:20.334Z,25.87
2023-03-02T10:55:22.547Z,29.97
2023-03-02T10:56:24.698Z,28.90
2023-03-02T10:57:39.213Z,27.70
2023-03-02T10:58:41.055Z,25.67
2023-03-02T10:59:45.782Z,29.23
2023-03-02T11:01:18.840Z,27.90
2023-03-02T11:02:28.647Z,28.03
2023-03-02T11:03:32.189Z,27.57
2023-03-02T11:04:37.240Z,27.33
2023-03-02T11:05:47.307Z,28.43
2023-03-02T11:06:49.892Z,25.67
2023-03-02T11:07:59.841Z,28.17
2023-03-02T11:09:04.624Z,26.97
2023-03-02T11:10:32.557Z,27.90
2023-03-02T11:11:35.345Z,27.57
2023-03-02T11:12:45.814Z,29.70
2023-03-02T11:13:47.945Z,26.00
2023-03-02T11:14:50.048Z,28.53
2023-03-02T11:15:53.691Z,28.10
2023-03-02T11:16:57.154Z,26.57
2023-03-02T11:18:24.113Z,27.03
2023-03-02T11:19:35.368Z,29.00
2023-03-02T11:20:44.656Z,27.70
2023-03-02T11:22:05.830Z,24.43
2023-03-02T11:23:35.872Z,26.57
2023-03-02T11:24:52.923Z,24.70
2023-03-02T11:25:58.679Z,25.37
2023-03-02T11:27:27.561Z,25.13
2023-03-02T11:28:44.256Z,25.23
2023-03-02T11:29:56.649Z,26.67
2023-03-02T11:31:01.588Z,25.77
2023-03-02T11:32:11.685Z,28.07
2023-03-02T11:33:29.692Z,28.07
2023-03-02T11:34:43.202Z,27.87
2023-03-02T11:36:24.285Z,28.27
2023-03-02T11:37:25.894Z,26.90
2023-03-02T11:38:47.000Z,27.27
2023-03-02T11:39:56.225Z,25.20
2023-03-02T11:41:07.937Z,28.93
2023-03-02T11:42:21.985Z,28.30
2023-03-02T11:43:25.589Z,26.30
2023-03-02T11:44:29.174Z,26.60
2023-03-02T11:45:39.754Z,26.23
2023-03-02T11:46:46.922Z,29.00
2023-03-02T11:48:04.007Z,27.80
2023-03-02T11:49:16.452Z,26.00
2023-03-02T11:50:21.385Z,27.40
2023-03-02T11:51:47.172Z,26.07
2023-03-02T11:53:19.035Z,25.43
2023-03-02T11:55:08.793Z,24.97
2023-03-02T11:56:10.750Z,25.83
2023-03-02T11:57:39.703Z,24.73
2023-03-02T11:58:43.938Z,24.27
2023-03-02T11:59:48.196Z,25.53
2023-03-02T12:00:54.176Z,24.30
2023-03-02T12:01:57.638Z,24.47
2023-03-02T12:03:07.586Z,23.73
2023-03-02T12:04:27.836Z,22.47
2023-03-02T12:05:38.269Z,26.00
2023-03-02T12:06:42.232Z,24.50
2023-03-02T12:07:45.099Z,23.63
2023-03-02T12:08:55.989Z,24.27
2023-03-02T12:10:24.173Z,23.40
2023-03-02T12:11:36.669Z,23.47
2023-03-02T12:12:51.711Z,24.17
2023-03-02T12:14:05.646Z,23.67
2023-03-02T12:15:29.408Z,20.67
2023-03-02T12:16:41.616Z,24.70
2023-03-02T12:17:44.085Z,24.30
2023-03-02T12:18:46.869Z,24.33
2023-03-02T12:19:52.313Z,24.13
2023-03-02T12:21:13.243Z,25.27
2023-03-02T12:22:30.084Z,24.20
2023-03-02T12:23:49.537Z,23.87
2023-03-02T12:25:23.692Z,23.07
2023-03-02T12:26:43.862Z,24.10
2023-03-02T12:27:49.973Z,23.20
2023-03-02T12:29:00.728Z,21.23
2023-03-02T12:30:25.548Z,22.80
2023-03-02T12:31:40.665Z,23.67
2023-03-02T12:32:59.307Z,23.30
2023-03-02T12:34:10.652Z,20.60
2023-03-02T12:35:18.129Z,22.23
2023-03-02T12:36:30.110Z,22.40
2023-03-02T12:37:48.568Z,22.20
2023-03-02T12:39:18.487Z,23.13
2023-03-02T12:40:45.464Z,24.57
2023-03-02T12:42:07.122Z,26.37
2023-03-02T12:43:28.121Z,20.83
2023-03-02T12:44:57.131Z,19.93
2023-03-02T12:46:30.750Z,22.90
2023-03-02T12:47:34.433Z,24.43
2023-03-02T12:48:45.604Z,21.40
2023-03-02T12:50:00.779Z,23.23
2023-03-02T12:51:21.118Z,23.40
2023-03-02T12:52:31.261Z,23.13
2023-03-02T12:53:33.468Z,24.07
2023-03-02T12:54:38.652Z,23.43
2023-03-02T12:55:41.226Z,24.10
2023-03-02T12:56:43.458Z,24.40
2023-03-02T12:57:58.006Z,23.70
2023-03-02T12:59:00.731Z,25.50
2023-03-02T13:00:07.470Z,21.13
2023-03-02T13:01:22.718Z,23.53
2023-03-02T13:02:33.669Z,21.77
2023-03-02T13:03:49.202Z,22.07
2023-03-02T13:04:57.046Z,23.67
2023-03-02T13:06:14.022Z,23.80
2023-03-02T13:07:23.750Z,24.63
2023-03-02T13:08:29.859Z,23.27
2023-03-02T13:09:33.604Z,23.20
2023-03-02T13:10:45.359Z,24.10
2023-03-02T13:11:55.163Z,24.20
2023-03-02T13:13:01.691Z,22.33
2023-03-02T13:14:19.255Z,22.70
2023-03-02T13:15:21.171Z,23.60
2023-03-02T13:16:25.900Z,22.73
2023-03-02T13:17:32.723Z,21.87
2023-03-02T13:18:42.159Z,22.53
2023-03-02T13:19:45.442Z,21.03
2023-03-02T13:20:48.145Z,24.30
2023-03-02T13:21:50.990Z,19.47
2023-03-02T13:22:53.506Z,22.50
2023-03-02T13:23:55.429Z,23.47
2023-03-02T13:25:05.602Z,23.37
2023-03-02T13:26:07.204Z,22.23
2023-03-02T13:27:21.314Z,24.27
2023-03-02T13:28:34.757Z,24.50
2023-03-02T13:29:37.126Z,21.50
2023-03-02T13:30:47.968Z,22.10
2023-03-02T13:31:55.734Z,23.13
2023-03-02T13:33:05.410Z,23.20
2023-03-02T13:34:21.353Z,21.90
2023-03-02T13:35:30.780Z,21.63
2023-03-02T13:36:39.160Z,21.10
2023-03-02T13:37:45.048Z,22.20
2023-03-02T13:38:57.132Z,22.87
2023-03-02T13:40:07.311Z,22.30
2023-03-02T13:41:23.845Z,22.47
2023-03-02T13:42:29.492Z,22.87
2023-03-02T13:43:41.621Z,20.40
2023-03-02T13:44:44.340Z,21.33
2023-03-02T13:46:26.410Z,19.37
2023-03-02T13:47:28.288Z,21.73
2023-03-02T13:48:33.040Z,22.20
2023-03-02T13:49:36.457Z,21.27
2023-03-02T13:50:38.795Z,20.70
2023-03-02T13:51:44.722Z,23.20
2023-03-02T13:52:46.771Z,20.40
2023-03-02T13:53:55.169Z,22.77
2023-03-02T13:55:01.581Z,20.80
2023-03-02T13:56:04.216Z,22.10
2023-03-02T13:57:06.992Z,21.17
2023-03-02T13:58:20.440Z,19.93
2023-03-02T13:59:23.925Z,21.60
2023-03-02T14:00:32.162Z,21.33
2023-03-02T14:01:34.788Z,21.23
2023-03-02T14:02:37.219Z,22.20
2023-03-02T14:03:40.026Z,21.37
2023-03-02T14:04:42.757Z,21.40
2023-03-02T14:05:46.100Z,21.90
2023-03-02T14:06:48.394Z,21.63
2023-03-02T14:07:50.713Z,22.93
2023-03-02T14:08:54.236Z,22.73
2023-03-02T14:10:00.170Z,23.23
2023-03-02T14:11:05.767Z,22.17
2023-03-02T14:12:08.270Z,21.43
2023-03-02T14:13:18.016Z,23.23
2023-03-02T14:14:25.724Z,23.20
2023-03-02T14:15:27.859Z,24.63
2023-03-02T14:16:31.788Z,23.43
2023-03-02T14:17:35.587Z,25.20
2023-03-02T14:18:48.016Z,24.00